sensor_id;sensor_type;location;lat;lon;timestamp;temperature;humidity
69938;DHT22;57248;47.320;15.998;2023-06-04T00:00:05;12.91;88.00
69938;DHT22;57248;47.320;15.998;2023-06-04T00:02:38;12.95;88.44
69938;DHT22;57248;47.320;15.998;2023-06-04T00:05:09;12.95;89.13
69938;DHT22;57248;47.320;15.998;2023-06-04T00:07:41;12.84;89.74
69938;DHT22;57248;47.320;15.998;2023-06-04T00:10:07;12.95;88.63
69938;DHT22;57248;47.320;15.998;2023-06-04T00:12:39;13.00;87.65
69938;DHT22;57248;47.320;15.998;2023-06-04T00:15:13;13.06;87.82
69938;DHT22;57248;47.320;15.998;2023-06-04T00:17:45;13.09;88.07
69938;DHT22;57248;47.320;15.998;2023-06-04T00:20:24;13.15;87.65
69938;DHT22;57248;47.320;15.998;2023-06-04T00:22:56;13.19;88.34
69938;DHT22;57248;47.320;15.998;2023-06-04T00:25:29;13.19;88.20
69938;DHT22;57248;47.320;15.998;2023-06-04T00:28:01;13.19;88.60
69938;DHT22;57248;47.320;15.998;2023-06-04T00:30:33;13.18;88.37
69938;DHT22;57248;47.320;15.998;2023-06-04T00:33:05;13.22;89.01
69938;DHT22;57248;47.320;15.998;2023-06-04T00:35:37;13.20;88.95
69938;DHT22;57248;47.320;15.998;2023-06-04T00:38:09;13.24;88.48
69938;DHT22;57248;47.320;15.998;2023-06-04T00:40:41;13.24;88.20
69938;DHT22;57248;47.320;15.998;2023-06-04T00:43:07;13.24;88.17
69938;DHT22;57248;47.320;15.998;2023-06-04T00:45:40;13.29;88.24
69938;DHT22;57248;47.320;15.998;2023-06-04T00:48:08;13.32;88.29
69938;DHT22;57248;47.320;15.998;2023-06-04T00:50:41;13.38;88.24
69938;DHT22;57248;47.320;15.998;2023-06-04T00:53:12;13.35;87.90
69938;DHT22;57248;47.320;15.998;2023-06-04T00:55:44;13.36;88.60
69938;DHT22;57248;47.320;15.998;2023-06-04T00:58:17;13.39;88.75
69938;DHT22;57248;47.320;15.998;2023-06-04T01:00:51;13.40;88.78
69938;DHT22;57248;47.320;15.998;2023-06-04T01:03:25;13.40;87.67
69938;DHT22;57248;47.320;15.998;2023-06-04T01:06:13;13.42;88.43
69938;DHT22;57248;47.320;15.998;2023-06-04T01:08:54;13.42;88.29
69938;DHT22;57248;47.320;15.998;2023-06-04T01:11:34;13.44;87.63
69938;DHT22;57248;47.320;15.998;2023-06-04T01:14:08;13.43;88.73
69938;DHT22;57248;47.320;15.998;2023-06-04T01:16:49;13.49;88.24
69938;DHT22;57248;47.320;15.998;2023-06-04T01:25:36;13.53;89.70
69938;DHT22;57248;47.320;15.998;2023-06-04T01:28:12;13.50;89.75
69938;DHT22;57248;47.320;15.998;2023-06-04T01:30:45;13.50;89.91
69938;DHT22;57248;47.320;15.998;2023-06-04T01:33:19;13.50;89.30
69938;DHT22;57248;47.320;15.998;2023-06-04T01:35:52;13.46;89.15
69938;DHT22;57248;47.320;15.998;2023-06-04T01:38:24;13.44;89.44
69938;DHT22;57248;47.320;15.998;2023-06-04T01:40:56;13.43;89.10
69938;DHT22;57248;47.320;15.998;2023-06-04T01:43:32;13.42;88.98
69938;DHT22;57248;47.320;15.998;2023-06-04T01:46:06;13.39;88.79
69938;DHT22;57248;47.320;15.998;2023-06-04T01:48:38;13.32;89.19
69938;DHT22;57248;47.320;15.998;2023-06-04T01:51:11;13.22;88.98
69938;DHT22;57248;47.320;15.998;2023-06-04T01:53:43;13.18;89.29
69938;DHT22;57248;47.320;15.998;2023-06-04T01:56:15;13.02;89.99
69938;DHT22;57248;47.320;15.998;2023-06-04T01:58:47;13.03;89.47
69938;DHT22;57248;47.320;15.998;2023-06-04T02:01:20;13.10;89.20
69938;DHT22;57248;47.320;15.998;2023-06-04T02:03:52;13.15;88.94
69938;DHT22;57248;47.320;15.998;2023-06-04T02:06:24;13.15;88.99
69938;DHT22;57248;47.320;15.998;2023-06-04T02:09:01;13.18;88.99
69938;DHT22;57248;47.320;15.998;2023-06-04T02:11:35;13.23;88.94
69938;DHT22;57248;47.320;15.998;2023-06-04T02:14:07;13.23;89.16
69938;DHT22;57248;47.320;15.998;2023-06-04T02:16:39;13.24;89.85
69938;DHT22;57248;47.320;15.998;2023-06-04T02:19:29;13.26;90.46
69938;DHT22;57248;47.320;15.998;2023-06-04T02:22:01;13.32;90.94
69938;DHT22;57248;47.320;15.998;2023-06-04T02:24:33;13.30;90.22
69938;DHT22;57248;47.320;15.998;2023-06-04T02:27:05;13.30;89.97
69938;DHT22;57248;47.320;15.998;2023-06-04T02:29:39;13.32;90.47
69938;DHT22;57248;47.320;15.998;2023-06-04T02:32:05;13.26;90.75
69938;DHT22;57248;47.320;15.998;2023-06-04T02:34:37;13.29;90.33
69938;DHT22;57248;47.320;15.998;2023-06-04T02:37:09;13.26;89.53
69938;DHT22;57248;47.320;15.998;2023-06-04T02:39:41;13.20;90.12
69938;DHT22;57248;47.320;15.998;2023-06-04T02:42:13;13.18;90.06
69938;DHT22;57248;47.320;15.998;2023-06-04T02:44:45;13.18;89.26
69938;DHT22;57248;47.320;15.998;2023-06-04T02:47:17;13.10;90.43
69938;DHT22;57248;47.320;15.998;2023-06-04T02:49:44;13.05;89.68
69938;DHT22;57248;47.320;15.998;2023-06-04T02:52:17;12.99;89.66
69938;DHT22;57248;47.320;15.998;2023-06-04T02:54:49;12.89;89.71
69938;DHT22;57248;47.320;15.998;2023-06-04T02:57:22;12.75;90.35
69938;DHT22;57248;47.320;15.998;2023-06-04T02:59:54;12.62;90.66
69938;DHT22;57248;47.320;15.998;2023-06-04T03:02:27;12.52;90.95
69938;DHT22;57248;47.320;15.998;2023-06-04T03:04:59;12.51;90.96
69938;DHT22;57248;47.320;15.998;2023-06-04T03:07:34;12.42;91.19
69938;DHT22;57248;47.320;15.998;2023-06-04T03:10:07;12.44;90.70
69938;DHT22;57248;47.320;15.998;2023-06-04T03:12:39;12.50;90.58
69938;DHT22;57248;47.320;15.998;2023-06-04T03:15:11;12.54;90.15
69938;DHT22;57248;47.320;15.998;2023-06-04T03:17:43;12.60;89.90
69938;DHT22;57248;47.320;15.998;2023-06-04T03:20:22;12.58;90.68
69938;DHT22;57248;47.320;15.998;2023-06-04T03:22:55;12.68;90.90
69938;DHT22;57248;47.320;15.998;2023-06-04T03:25:27;12.77;90.55
69938;DHT22;57248;47.320;15.998;2023-06-04T03:27:59;12.89;90.38
69938;DHT22;57248;47.320;15.998;2023-06-04T03:30:32;12.95;90.15
69938;DHT22;57248;47.320;15.998;2023-06-04T03:33:05;13.06;90.34
69938;DHT22;57248;47.320;15.998;2023-06-04T03:35:30;13.05;90.55
69938;DHT22;57248;47.320;15.998;2023-06-04T03:38:02;13.13;89.90
69938;DHT22;57248;47.320;15.998;2023-06-04T03:40:35;13.24;89.65
69938;DHT22;57248;47.320;15.998;2023-06-04T03:43:09;13.35;89.17
69938;DHT22;57248;47.320;15.998;2023-06-04T03:45:42;13.40;89.23
69938;DHT22;57248;47.320;15.998;2023-06-04T03:48:15;13.44;89.21
69938;DHT22;57248;47.320;15.998;2023-06-04T03:50:47;13.56;89.18
69938;DHT22;57248;47.320;15.998;2023-06-04T03:53:20;13.67;89.58
69938;DHT22;57248;47.320;15.998;2023-06-04T03:55:52;13.74;89.01
69938;DHT22;57248;47.320;15.998;2023-06-04T03:58:25;13.81;89.23
69938;DHT22;57248;47.320;15.998;2023-06-04T04:00:57;13.91;89.34
69938;DHT22;57248;47.320;15.998;2023-06-04T04:03:29;14.07;88.68
69938;DHT22;57248;47.320;15.998;2023-06-04T04:06:04;14.24;87.39
69938;DHT22;57248;47.320;15.998;2023-06-04T04:08:37;14.28;86.91
69938;DHT22;57248;47.320;15.998;2023-06-04T04:11:15;14.26;86.37
69938;DHT22;57248;47.320;15.998;2023-06-04T04:13:49;14.12;87.01
69938;DHT22;57248;47.320;15.998;2023-06-04T04:16:16;14.15;87.04
69938;DHT22;57248;47.320;15.998;2023-06-04T04:18:56;14.08;88.04
69938;DHT22;57248;47.320;15.998;2023-06-04T04:21:28;14.08;88.54
69938;DHT22;57248;47.320;15.998;2023-06-04T04:24:01;14.11;88.16
69938;DHT22;57248;47.320;15.998;2023-06-04T04:26:33;14.08;87.42
69938;DHT22;57248;47.320;15.998;2023-06-04T04:29:05;14.14;87.46
69938;DHT22;57248;47.320;15.998;2023-06-04T04:31:41;14.09;87.69
69938;DHT22;57248;47.320;15.998;2023-06-04T04:34:13;14.12;88.25
69938;DHT22;57248;47.320;15.998;2023-06-04T04:36:47;14.15;88.18
69938;DHT22;57248;47.320;15.998;2023-06-04T04:39:25;14.18;88.80
69938;DHT22;57248;47.320;15.998;2023-06-04T04:41:57;14.91;88.29
69938;DHT22;57248;47.320;15.998;2023-06-04T04:44:29;15.31;86.21
69938;DHT22;57248;47.320;15.998;2023-06-04T04:47:02;15.30;86.00
69938;DHT22;57248;47.320;15.998;2023-06-04T04:49:33;15.52;85.50
69938;DHT22;57248;47.320;15.998;2023-06-04T04:52:05;15.20;84.87
69938;DHT22;57248;47.320;15.998;2023-06-04T04:54:40;14.94;85.47
69938;DHT22;57248;47.320;15.998;2023-06-04T04:57:13;14.87;85.60
69938;DHT22;57248;47.320;15.998;2023-06-04T04:59:49;15.04;85.69
69938;DHT22;57248;47.320;15.998;2023-06-04T05:02:21;14.86;85.46
69938;DHT22;57248;47.320;15.998;2023-06-04T05:04:54;14.98;85.39
69938;DHT22;57248;47.320;15.998;2023-06-04T05:07:27;15.18;85.94
69938;DHT22;57248;47.320;15.998;2023-06-04T05:09:59;15.18;86.18
69938;DHT22;57248;47.320;15.998;2023-06-04T05:12:33;15.41;85.19
69938;DHT22;57248;47.320;15.998;2023-06-04T05:15:08;15.66;84.49
69938;DHT22;57248;47.320;15.998;2023-06-04T05:17:40;15.61;84.28
69938;DHT22;57248;47.320;15.998;2023-06-04T05:20:13;15.48;84.92
69938;DHT22;57248;47.320;15.998;2023-06-04T05:22:48;15.38;84.61
69938;DHT22;57248;47.320;15.998;2023-06-04T05:25:21;15.32;84.78
69938;DHT22;57248;47.320;15.998;2023-06-04T05:27:56;15.27;85.21
69938;DHT22;57248;47.320;15.998;2023-06-04T05:30:29;15.17;86.05
69938;DHT22;57248;47.320;15.998;2023-06-04T05:32:54;15.17;86.15
69938;DHT22;57248;47.320;15.998;2023-06-04T05:35:28;15.37;85.82
69938;DHT22;57248;47.320;15.998;2023-06-04T05:38:01;15.55;85.00
69938;DHT22;57248;47.320;15.998;2023-06-04T05:40:33;15.89;83.74
69938;DHT22;57248;47.320;15.998;2023-06-04T05:43:05;15.96;83.63
69938;DHT22;57248;47.320;15.998;2023-06-04T05:45:38;16.02;83.71
69938;DHT22;57248;47.320;15.998;2023-06-04T05:48:10;16.13;84.20
69938;DHT22;57248;47.320;15.998;2023-06-04T05:50:43;16.05;84.06
69938;DHT22;57248;47.320;15.998;2023-06-04T05:53:16;16.13;83.87
69938;DHT22;57248;47.320;15.998;2023-06-04T05:55:51;16.33;83.07
69938;DHT22;57248;47.320;15.998;2023-06-04T05:58:24;16.58;82.81
69938;DHT22;57248;47.320;15.998;2023-06-04T06:00:57;16.88;81.58
69938;DHT22;57248;47.320;15.998;2023-06-04T06:03:28;17.22;79.54
69938;DHT22;57248;47.320;15.998;2023-06-04T06:06:00;17.27;79.08
69938;DHT22;57248;47.320;15.998;2023-06-04T06:08:26;17.54;78.19
69938;DHT22;57248;47.320;15.998;2023-06-04T06:10:58;17.75;77.72
69938;DHT22;57248;47.320;15.998;2023-06-04T06:13:30;17.50;77.12
69938;DHT22;57248;47.320;15.998;2023-06-04T06:16:03;17.32;77.91
69938;DHT22;57248;47.320;15.998;2023-06-04T06:18:36;18.00;75.41
69938;DHT22;57248;47.320;15.998;2023-06-04T06:21:10;18.39;74.74
69938;DHT22;57248;47.320;15.998;2023-06-04T06:23:42;18.48;74.75
69938;DHT22;57248;47.320;15.998;2023-06-04T06:26:13;18.77;74.32
69938;DHT22;57248;47.320;15.998;2023-06-04T06:28:50;18.87;73.50
69938;DHT22;57248;47.320;15.998;2023-06-04T06:31:23;19.45;71.56
69938;DHT22;57248;47.320;15.998;2023-06-04T06:33:56;19.18;71.97
69938;DHT22;57248;47.320;15.998;2023-06-04T06:36:27;19.41;71.00
69938;DHT22;57248;47.320;15.998;2023-06-04T06:39:00;19.55;69.71
69938;DHT22;57248;47.320;15.998;2023-06-04T06:41:32;19.55;68.15
69938;DHT22;57248;47.320;15.998;2023-06-04T06:44:06;19.30;70.59
69938;DHT22;57248;47.320;15.998;2023-06-04T06:46:38;19.75;69.51
69938;DHT22;57248;47.320;15.998;2023-06-04T06:49:10;20.02;67.81
69938;DHT22;57248;47.320;15.998;2023-06-04T06:51:42;19.64;69.45
69938;DHT22;57248;47.320;15.998;2023-06-04T06:54:15;19.54;69.99
69938;DHT22;57248;47.320;15.998;2023-06-04T06:56:50;19.36;70.59
69938;DHT22;57248;47.320;15.998;2023-06-04T06:59:22;19.39;70.59
69938;DHT22;57248;47.320;15.998;2023-06-04T07:01:54;19.52;70.69
69938;DHT22;57248;47.320;15.998;2023-06-04T07:04:26;19.32;68.45
69938;DHT22;57248;47.320;15.998;2023-06-04T07:06:58;19.21;68.34
69938;DHT22;57248;47.320;15.998;2023-06-04T07:09:31;19.38;67.26
69938;DHT22;57248;47.320;15.998;2023-06-04T07:12:05;19.75;66.10
69938;DHT22;57248;47.320;15.998;2023-06-04T07:14:37;19.86;66.75
69938;DHT22;57248;47.320;15.998;2023-06-04T07:17:09;20.61;64.21
69938;DHT22;57248;47.320;15.998;2023-06-04T07:19:50;21.36;61.65
69938;DHT22;57248;47.320;15.998;2023-06-04T07:22:21;22.56;59.31
69938;DHT22;57248;47.320;15.998;2023-06-04T07:24:54;22.77;56.99
69938;DHT22;57248;47.320;15.998;2023-06-04T07:27:26;23.16;54.95
69938;DHT22;57248;47.320;15.998;2023-06-04T07:30:00;23.34;57.24
69938;DHT22;57248;47.320;15.998;2023-06-04T07:32:31;23.37;53.04
69938;DHT22;57248;47.320;15.998;2023-06-04T07:35:05;23.21;53.88
69938;DHT22;57248;47.320;15.998;2023-06-04T07:37:36;22.69;54.62
69938;DHT22;57248;47.320;15.998;2023-06-04T07:40:03;23.65;52.57
69938;DHT22;57248;47.320;15.998;2023-06-04T07:42:35;23.30;53.62
69938;DHT22;57248;47.320;15.998;2023-06-04T07:45:08;24.37;52.07
69938;DHT22;57248;47.320;15.998;2023-06-04T07:47:42;24.33;51.64
69938;DHT22;57248;47.320;15.998;2023-06-04T07:50:15;24.53;48.77
69938;DHT22;57248;47.320;15.998;2023-06-04T07:52:47;24.47;48.86
69938;DHT22;57248;47.320;15.998;2023-06-04T07:55:19;24.47;50.63
69938;DHT22;57248;47.320;15.998;2023-06-04T07:57:51;23.20;53.19
69938;DHT22;57248;47.320;15.998;2023-06-04T08:00:23;23.41;51.56
69938;DHT22;57248;47.320;15.998;2023-06-04T08:02:55;22.56;53.41
69938;DHT22;57248;47.320;15.998;2023-06-04T08:05:28;22.72;51.87
69938;DHT22;57248;47.320;15.998;2023-06-04T08:08:00;22.63;52.72
69938;DHT22;57248;47.320;15.998;2023-06-04T08:10:33;24.36;48.85
69938;DHT22;57248;47.320;15.998;2023-06-04T08:13:04;25.01;45.66
69938;DHT22;57248;47.320;15.998;2023-06-04T08:15:36;24.60;47.14
69938;DHT22;57248;47.320;15.998;2023-06-04T08:18:15;25.32;46.37
69938;DHT22;57248;47.320;15.998;2023-06-04T08:20:47;25.96;46.89
69938;DHT22;57248;47.320;15.998;2023-06-04T08:23:26;25.36;46.28
69938;DHT22;57248;47.320;15.998;2023-06-04T08:25:58;25.83;46.15
69938;DHT22;57248;47.320;15.998;2023-06-04T08:28:30;25.90;45.42
69938;DHT22;57248;47.320;15.998;2023-06-04T08:31:02;25.22;46.88
69938;DHT22;57248;47.320;15.998;2023-06-04T08:33:35;24.43;48.68
69938;DHT22;57248;47.320;15.998;2023-06-04T08:36:06;24.71;49.49
69938;DHT22;57248;47.320;15.998;2023-06-04T08:38:32;23.68;48.28
69938;DHT22;57248;47.320;15.998;2023-06-04T08:43:45;23.81;49.29
69938;DHT22;57248;47.320;15.998;2023-06-04T08:46:17;24.53;47.15
69938;DHT22;57248;47.320;15.998;2023-06-04T08:48:50;23.09;48.49
69938;DHT22;57248;47.320;15.998;2023-06-04T08:51:22;22.68;50.61
69938;DHT22;57248;47.320;15.998;2023-06-04T08:53:56;23.64;49.24
69938;DHT22;57248;47.320;15.998;2023-06-04T08:56:29;23.72;50.08
69938;DHT22;57248;47.320;15.998;2023-06-04T08:59:05;23.67;50.33
69938;DHT22;57248;47.320;15.998;2023-06-04T09:01:38;22.90;50.32
69938;DHT22;57248;47.320;15.998;2023-06-04T09:04:11;22.42;51.57
69938;DHT22;57248;47.320;15.998;2023-06-04T09:06:43;23.94;50.04
69938;DHT22;57248;47.320;15.998;2023-06-04T09:09:18;23.69;49.90
69938;DHT22;57248;47.320;15.998;2023-06-04T09:11:52;23.77;50.89
69938;DHT22;57248;47.320;15.998;2023-06-04T09:14:25;23.03;51.80
69938;DHT22;57248;47.320;15.998;2023-06-04T09:16:58;22.90;52.44
69938;DHT22;57248;47.320;15.998;2023-06-04T09:19:37;23.04;52.24
69938;DHT22;57248;47.320;15.998;2023-06-04T09:22:11;23.71;52.10
69938;DHT22;57248;47.320;15.998;2023-06-04T09:24:45;23.47;50.67
69938;DHT22;57248;47.320;15.998;2023-06-04T09:27:21;23.04;52.99
69938;DHT22;57248;47.320;15.998;2023-06-04T09:29:57;23.72;51.89
69938;DHT22;57248;47.320;15.998;2023-06-04T09:32:30;23.40;51.32
69938;DHT22;57248;47.320;15.998;2023-06-04T09:37:54;25.72;47.59
69938;DHT22;57248;47.320;15.998;2023-06-04T09:40:36;26.34;47.17
69938;DHT22;57248;47.320;15.998;2023-06-04T09:43:10;26.01;46.64
69938;DHT22;57248;47.320;15.998;2023-06-04T09:45:42;26.18;45.94
69938;DHT22;57248;47.320;15.998;2023-06-04T09:48:21;26.08;46.91
69938;DHT22;57248;47.320;15.998;2023-06-04T09:50:53;25.65;47.49
69938;DHT22;57248;47.320;15.998;2023-06-04T09:53:25;24.92;47.98
69938;DHT22;57248;47.320;15.998;2023-06-04T09:56:01;25.32;48.58
69938;DHT22;57248;47.320;15.998;2023-06-04T09:58:34;25.62;47.23
69938;DHT22;57248;47.320;15.998;2023-06-04T10:01:07;25.26;48.57
69938;DHT22;57248;47.320;15.998;2023-06-04T10:03:43;26.58;44.50
69938;DHT22;57248;47.320;15.998;2023-06-04T10:06:19;29.27;41.65
69938;DHT22;57248;47.320;15.998;2023-06-04T10:08:55;30.19;39.54
69938;DHT22;57248;47.320;15.998;2023-06-04T10:11:53;31.35;39.30
69938;DHT22;57248;47.320;15.998;2023-06-04T10:14:35;31.15;38.86
69938;DHT22;57248;47.320;15.998;2023-06-04T10:17:12;28.69;42.62
69938;DHT22;57248;47.320;15.998;2023-06-04T10:19:43;28.80;43.05
69938;DHT22;57248;47.320;15.998;2023-06-04T10:22:23;27.53;45.79
69938;DHT22;57248;47.320;15.998;2023-06-04T10:24:58;26.81;45.73
69938;DHT22;57248;47.320;15.998;2023-06-04T10:27:33;27.84;44.15
69938;DHT22;57248;47.320;15.998;2023-06-04T10:30:08;27.94;44.25
69938;DHT22;57248;47.320;15.998;2023-06-04T10:32:43;25.86;47.95
69938;DHT22;57248;47.320;15.998;2023-06-04T10:35:16;25.43;50.57
69938;DHT22;57248;47.320;15.998;2023-06-04T10:37:48;24.39;52.69
69938;DHT22;57248;47.320;15.998;2023-06-04T10:40:32;23.74;53.89
69938;DHT22;57248;47.320;15.998;2023-06-04T10:43:12;25.19;52.17
69938;DHT22;57248;47.320;15.998;2023-06-04T10:45:45;25.19;50.45
69938;DHT22;57248;47.320;15.998;2023-06-04T10:48:16;24.84;52.26
69938;DHT22;57248;47.320;15.998;2023-06-04T10:50:52;24.43;53.57
69938;DHT22;57248;47.320;15.998;2023-06-04T10:53:24;25.55;52.35
69938;DHT22;57248;47.320;15.998;2023-06-04T10:56:07;28.01;45.80
69938;DHT22;57248;47.320;15.998;2023-06-04T10:58:39;28.91;45.77
69938;DHT22;57248;47.320;15.998;2023-06-04T11:01:23;27.65;45.21
69938;DHT22;57248;47.320;15.998;2023-06-04T11:03:55;26.28;47.68
69938;DHT22;57248;47.320;15.998;2023-06-04T11:06:27;27.17;47.17
69938;DHT22;57248;47.320;15.998;2023-06-04T11:09:03;29.89;43.58
69938;DHT22;57248;47.320;15.998;2023-06-04T11:11:38;27.40;45.82
69938;DHT22;57248;47.320;15.998;2023-06-04T11:14:10;28.50;44.82
69938;DHT22;57248;47.320;15.998;2023-06-04T11:16:44;31.70;42.12
69938;DHT22;57248;47.320;15.998;2023-06-04T11:19:17;32.98;38.75
69938;DHT22;57248;47.320;15.998;2023-06-04T11:21:56;32.20;38.81
69938;DHT22;57248;47.320;15.998;2023-06-04T11:24:28;29.44;41.94
69938;DHT22;57248;47.320;15.998;2023-06-04T11:27:03;27.55;45.88
69938;DHT22;57248;47.320;15.998;2023-06-04T11:29:29;32.42;39.09
69938;DHT22;57248;47.320;15.998;2023-06-04T11:32:00;33.42;35.80
69938;DHT22;57248;47.320;15.998;2023-06-04T11:34:33;30.79;40.75
69938;DHT22;57248;47.320;15.998;2023-06-04T11:37:08;29.71;43.14
69938;DHT22;57248;47.320;15.998;2023-06-04T11:39:40;30.57;43.54
69938;DHT22;57248;47.320;15.998;2023-06-04T11:42:09;30.95;40.89
69938;DHT22;57248;47.320;15.998;2023-06-04T11:44:43;30.72;40.30
69938;DHT22;57248;47.320;15.998;2023-06-04T11:47:20;30.82;40.84
69938;DHT22;57248;47.320;15.998;2023-06-04T11:49:55;31.46;39.80
69938;DHT22;57248;47.320;15.998;2023-06-04T11:52:28;31.02;39.86
69938;DHT22;57248;47.320;15.998;2023-06-04T11:55:00;32.98;37.99
69938;DHT22;57248;47.320;15.998;2023-06-04T11:57:33;33.34;37.05
69938;DHT22;57248;47.320;15.998;2023-06-04T12:00:07;35.45;35.02
69938;DHT22;57248;47.320;15.998;2023-06-04T12:02:55;35.79;33.96
69938;DHT22;57248;47.320;15.998;2023-06-04T12:05:31;33.46;37.85
69938;DHT22;57248;47.320;15.998;2023-06-04T12:10:42;30.63;41.41
69938;DHT22;57248;47.320;15.998;2023-06-04T12:13:15;31.53;41.28
69938;DHT22;57248;47.320;15.998;2023-06-04T12:15:53;26.23;48.52
69938;DHT22;57248;47.320;15.998;2023-06-04T12:18:28;26.89;47.42
69938;DHT22;57248;47.320;15.998;2023-06-04T12:21:21;25.50;49.40
69938;DHT22;57248;47.320;15.998;2023-06-04T12:26:41;26.20;49.83
69938;DHT22;57248;47.320;15.998;2023-06-04T12:29:17;26.65;48.41
69938;DHT22;57248;47.320;15.998;2023-06-04T12:32:02;27.81;46.57
69938;DHT22;57248;47.320;15.998;2023-06-04T12:34:35;26.75;47.47
69938;DHT22;57248;47.320;15.998;2023-06-04T12:37:01;27.44;46.95
69938;DHT22;57248;47.320;15.998;2023-06-04T12:39:35;27.53;45.93
69938;DHT22;57248;47.320;15.998;2023-06-04T12:42:09;28.67;43.61
69938;DHT22;57248;47.320;15.998;2023-06-04T12:44:41;29.17;43.21
69938;DHT22;57248;47.320;15.998;2023-06-04T12:47:13;28.76;44.03
69938;DHT22;57248;47.320;15.998;2023-06-04T12:49:45;29.47;42.64
69938;DHT22;57248;47.320;15.998;2023-06-04T12:52:10;29.35;42.79
69938;DHT22;57248;47.320;15.998;2023-06-04T12:54:42;31.78;38.48
69938;DHT22;57248;47.320;15.998;2023-06-04T12:57:15;28.39;44.02
69938;DHT22;57248;47.320;15.998;2023-06-04T12:59:46;29.24;44.66
69938;DHT22;57248;47.320;15.998;2023-06-04T13:02:19;30.74;40.78
69938;DHT22;57248;47.320;15.998;2023-06-04T13:04:51;32.44;38.67
69938;DHT22;57248;47.320;15.998;2023-06-04T13:07:25;32.32;38.44
69938;DHT22;57248;47.320;15.998;2023-06-04T13:09:57;29.78;41.87
69938;DHT22;57248;47.320;15.998;2023-06-04T13:12:29;29.10;43.77
69938;DHT22;57248;47.320;15.998;2023-06-04T13:15:02;28.91;45.93
69938;DHT22;57248;47.320;15.998;2023-06-04T13:17:28;26.82;47.32
69938;DHT22;57248;47.320;15.998;2023-06-04T13:20:07;27.16;47.71
69938;DHT22;57248;47.320;15.998;2023-06-04T13:22:40;27.77;46.88
69938;DHT22;57248;47.320;15.998;2023-06-04T13:25:12;27.47;48.29
69938;DHT22;57248;47.320;15.998;2023-06-04T13:27:45;27.65;47.69
69938;DHT22;57248;47.320;15.998;2023-06-04T13:30:17;28.72;45.79
69938;DHT22;57248;47.320;15.998;2023-06-04T13:32:49;27.73;46.41
69938;DHT22;57248;47.320;15.998;2023-06-04T13:35:21;26.20;49.51
69938;DHT22;57248;47.320;15.998;2023-06-04T13:37:54;27.03;48.21
69938;DHT22;57248;47.320;15.998;2023-06-04T13:40:27;27.82;48.75
69938;DHT22;57248;47.320;15.998;2023-06-04T13:43:00;27.57;49.02
69938;DHT22;57248;47.320;15.998;2023-06-04T13:45:32;28.22;48.21
69938;DHT22;57248;47.320;15.998;2023-06-04T13:48:04;25.75;51.28
69938;DHT22;57248;47.320;15.998;2023-06-04T13:50:41;25.45;50.96
69938;DHT22;57248;47.320;15.998;2023-06-04T13:53:14;26.30;50.61
69938;DHT22;57248;47.320;15.998;2023-06-04T13:55:46;25.29;53.13
69938;DHT22;57248;47.320;15.998;2023-06-04T13:58:19;26.79;49.94
69938;DHT22;57248;47.320;15.998;2023-06-04T14:00:51;27.02;49.06
69938;DHT22;57248;47.320;15.998;2023-06-04T14:03:24;28.11;46.24
69938;DHT22;57248;47.320;15.998;2023-06-04T14:05:56;27.37;47.08
69938;DHT22;57248;47.320;15.998;2023-06-04T14:08:28;27.23;48.36
69938;DHT22;57248;47.320;15.998;2023-06-04T14:10:54;27.02;49.53
69938;DHT22;57248;47.320;15.998;2023-06-04T14:13:28;26.68;51.13
69938;DHT22;57248;47.320;15.998;2023-06-04T14:16:00;24.67;54.63
69938;DHT22;57248;47.320;15.998;2023-06-04T14:18:32;24.13;56.54
69938;DHT22;57248;47.320;15.998;2023-06-04T14:21:17;23.68;56.64
69938;DHT22;57248;47.320;15.998;2023-06-04T14:23:50;23.43;56.93
69938;DHT22;57248;47.320;15.998;2023-06-04T14:26:22;23.59;57.40
69938;DHT22;57248;47.320;15.998;2023-06-04T14:28:47;23.24;58.62
69938;DHT22;57248;47.320;15.998;2023-06-04T14:31:20;23.78;57.67
69938;DHT22;57248;47.320;15.998;2023-06-04T14:33:45;23.17;58.46
69938;DHT22;57248;47.320;15.998;2023-06-04T14:36:18;22.90;59.10
69938;DHT22;57248;47.320;15.998;2023-06-04T14:38:50;22.56;59.73
69938;DHT22;57248;47.320;15.998;2023-06-04T14:41:15;22.55;60.51
69938;DHT22;57248;47.320;15.998;2023-06-04T14:43:48;22.27;61.02
69938;DHT22;57248;47.320;15.998;2023-06-04T14:46:20;22.21;61.54
69938;DHT22;57248;47.320;15.998;2023-06-04T14:48:52;21.86;63.70
69938;DHT22;57248;47.320;15.998;2023-06-04T14:51:26;21.40;67.54
69938;DHT22;57248;47.320;15.998;2023-06-04T14:53:58;20.87;69.89
69938;DHT22;57248;47.320;15.998;2023-06-04T14:56:30;20.74;71.24
69938;DHT22;57248;47.320;15.998;2023-06-04T14:59:02;20.47;71.74
69938;DHT22;57248;47.320;15.998;2023-06-04T15:01:37;20.94;71.41
69938;DHT22;57248;47.320;15.998;2023-06-04T15:04:10;21.32;71.49
69938;DHT22;57248;47.320;15.998;2023-06-04T15:06:42;21.59;70.48
69938;DHT22;57248;47.320;15.998;2023-06-04T15:09:15;21.76;70.17
69938;DHT22;57248;47.320;15.998;2023-06-04T15:11:47;21.31;70.92
69938;DHT22;57248;47.320;15.998;2023-06-04T15:14:20;21.42;72.03
69938;DHT22;57248;47.320;15.998;2023-06-04T15:16:52;21.40;72.46
69938;DHT22;57248;47.320;15.998;2023-06-04T15:19:24;20.40;75.59
69938;DHT22;57248;47.320;15.998;2023-06-04T15:21:57;20.10;78.46
69938;DHT22;57248;47.320;15.998;2023-06-04T15:24:30;20.02;79.99
69938;DHT22;57248;47.320;15.998;2023-06-04T15:27:03;20.00;79.55
69938;DHT22;57248;47.320;15.998;2023-06-04T15:29:35;19.69;80.43
69938;DHT22;57248;47.320;15.998;2023-06-04T15:32:07;19.73;79.96
69938;DHT22;57248;47.320;15.998;2023-06-04T15:34:39;19.27;81.44
69938;DHT22;57248;47.320;15.998;2023-06-04T15:37:11;19.07;82.08
69938;DHT22;57248;47.320;15.998;2023-06-04T15:39:43;18.66;84.68
69938;DHT22;57248;47.320;15.998;2023-06-04T15:42:15;18.38;85.62
69938;DHT22;57248;47.320;15.998;2023-06-04T15:44:47;17.57;86.60
69938;DHT22;57248;47.320;15.998;2023-06-04T15:47:19;17.06;87.96
69938;DHT22;57248;47.320;15.998;2023-06-04T15:49:51;16.81;88.09
69938;DHT22;57248;47.320;15.998;2023-06-04T15:52:23;16.72;87.80
69938;DHT22;57248;47.320;15.998;2023-06-04T15:54:48;16.75;88.85
69938;DHT22;57248;47.320;15.998;2023-06-04T15:57:22;16.20;90.36
69938;DHT22;57248;47.320;15.998;2023-06-04T15:59:54;16.51;90.32
69938;DHT22;57248;47.320;15.998;2023-06-04T16:02:26;16.34;90.12
69938;DHT22;57248;47.320;15.998;2023-06-04T16:04:58;16.12;90.75
69938;DHT22;57248;47.320;15.998;2023-06-04T16:07:31;16.43;90.01